createdAt,value
2022-10-17T00:01:19.272Z,6.80
2022-10-17T00:04:22.415Z,7.15
2022-10-17T00:07:25.619Z,6.82
2022-10-17T00:10:28.718Z,6.60
2022-10-17T00:13:34.514Z,6.97
2022-10-17T00:16:37.941Z,6.37
2022-10-17T00:19:40.595Z,7.00
2022-10-17T00:22:43.930Z,6.28
2022-10-17T00:25:47.076Z,6.30
2022-10-17T00:28:51.798Z,6.60
2022-10-17T00:31:56.396Z,6.45
2022-10-17T00:35:01.598Z,6.82
2022-10-17T00:38:04.191Z,6.30
2022-10-17T00:41:08.868Z,6.37
2022-10-17T00:44:31.706Z,6.30
2022-10-17T00:47:36.996Z,6.62
2022-10-17T00:50:43.273Z,6.37
2022-10-17T00:53:46.373Z,6.60
2022-10-17T00:56:55.204Z,6.70
2022-10-17T01:00:00.032Z,6.68
2022-10-17T01:03:02.789Z,7.43
2022-10-17T01:06:05.898Z,6.90
2022-10-17T01:09:08.759Z,7.62
2022-10-17T01:12:20.766Z,6.67
2022-10-17T01:15:26.057Z,6.78
2022-10-17T01:18:51.882Z,7.05
2022-10-17T01:22:09.291Z,6.78
2022-10-17T01:25:35.509Z,7.70
2022-10-17T01:28:59.645Z,7.47
2022-10-17T01:32:23.209Z,8.68
2022-10-17T01:35:53.894Z,7.05
2022-10-17T01:39:21.281Z,6.90
2022-10-17T01:43:09.095Z,7.07
2022-10-17T01:46:19.791Z,7.30
2022-10-17T01:49:27.159Z,6.50
2022-10-17T01:52:38.899Z,7.15
2022-10-17T01:55:45.145Z,6.90
2022-10-17T01:59:00.837Z,6.47
2022-10-17T02:02:05.352Z,6.63
2022-10-17T02:05:10.535Z,6.95
2022-10-17T02:08:14.032Z,7.95
2022-10-17T02:11:23.886Z,8.07
2022-10-17T02:14:37.809Z,6.70
2022-10-17T02:18:16.195Z,6.80
2022-10-17T02:21:48.151Z,6.80
2022-10-17T02:25:09.659Z,7.07
2022-10-17T02:28:25.832Z,6.82
2022-10-17T02:31:42.113Z,7.03
2022-10-17T02:34:52.723Z,7.30
2022-10-17T02:37:56.361Z,7.18
2022-10-17T02:41:01.150Z,7.70
2022-10-17T02:44:07.079Z,8.55
2022-10-17T02:47:18.673Z,6.95
2022-10-17T02:53:55.315Z,6.87
2022-10-17T02:57:04.501Z,6.97
2022-10-17T03:00:11.188Z,7.97
2022-10-17T03:03:27.413Z,9.07
2022-10-17T03:06:30.560Z,8.97
2022-10-17T03:09:33.718Z,8.73
2022-10-17T03:12:36.523Z,10.02
2022-10-17T03:15:39.522Z,8.55
2022-10-17T03:18:45.378Z,8.82
2022-10-17T03:21:51.021Z,8.67
2022-10-17T03:24:53.942Z,8.13
2022-10-17T03:28:00.583Z,8.35
2022-10-17T03:31:11.110Z,8.43
2022-10-17T03:34:16.908Z,8.32
2022-10-17T03:37:19.930Z,7.97
2022-10-17T03:40:23.191Z,8.23
2022-10-17T03:43:25.834Z,9.73
2022-10-17T03:46:28.834Z,9.00
2022-10-17T03:49:31.990Z,9.40
2022-10-17T03:52:35.144Z,9.23
2022-10-17T03:55:38.785Z,8.85
2022-10-17T03:58:42.634Z,9.43
2022-10-17T04:01:45.551Z,9.20
2022-10-17T04:04:49.766Z,8.77
2022-10-17T04:07:52.434Z,8.60
2022-10-17T04:11:01.059Z,8.35
2022-10-17T04:14:03.957Z,8.88
2022-10-17T04:17:07.013Z,10.10
2022-10-17T04:20:10.750Z,10.05
2022-10-17T04:23:13.856Z,9.27
2022-10-17T04:26:16.773Z,9.70
2022-10-17T04:29:19.788Z,8.88
2022-10-17T04:32:22.912Z,8.90
2022-10-17T04:35:26.334Z,9.88
2022-10-17T04:38:29.974Z,9.43
2022-10-17T04:41:33.048Z,9.57
2022-10-17T04:44:37.776Z,10.77
2022-10-17T04:47:41.140Z,11.90
2022-10-17T04:50:57.401Z,9.93
2022-10-17T04:54:01.290Z,10.37
2022-10-17T04:57:04.446Z,10.23
2022-10-17T05:03:20.580Z,9.77
2022-10-17T05:06:25.832Z,10.38
2022-10-17T05:09:30.956Z,10.47
2022-10-17T05:12:34.072Z,9.98
2022-10-17T05:15:37.926Z,11.00
2022-10-17T05:18:40.876Z,11.65
2022-10-17T05:21:46.327Z,9.68
2022-10-17T05:24:49.223Z,9.60
2022-10-17T05:27:51.887Z,9.98
2022-10-17T05:30:55.195Z,10.73
2022-10-17T05:34:02.719Z,9.57
2022-10-17T05:37:06.387Z,9.60
2022-10-17T05:40:09.687Z,10.90
2022-10-17T05:43:12.842Z,11.38
2022-10-17T05:46:15.525Z,12.50
2022-10-17T05:49:31.959Z,12.40
2022-10-17T05:52:36.176Z,11.05
2022-10-17T05:55:39.583Z,11.23
2022-10-17T05:58:51.547Z,10.15
2022-10-17T06:01:58.070Z,10.88
2022-10-17T06:05:02.375Z,10.68
2022-10-17T06:08:05.246Z,10.70
2022-10-17T06:11:10.486Z,10.90
2022-10-17T06:14:13.975Z,9.73
2022-10-17T06:17:17.376Z,8.63
2022-10-17T06:20:20.317Z,9.02
2022-10-17T06:23:23.402Z,8.10
2022-10-17T06:26:28.293Z,8.17
2022-10-17T06:29:31.847Z,7.62
2022-10-17T06:32:34.489Z,8.38
2022-10-17T06:35:37.494Z,7.50
2022-10-17T06:38:40.208Z,7.97
2022-10-17T06:41:45.141Z,7.10
2022-10-17T06:44:47.795Z,7.68
2022-10-17T06:47:53.867Z,7.35
2022-10-17T06:51:02.423Z,7.60
2022-10-17T06:54:05.462Z,7.32
2022-10-17T06:57:08.887Z,6.80
2022-10-17T07:00:12.836Z,6.93
2022-10-17T07:03:16.146Z,6.93
2022-10-17T07:06:19.413Z,7.20
2022-10-17T07:09:23.090Z,6.30
2022-10-17T07:12:26.596Z,5.50
2022-10-17T07:15:29.229Z,6.45
2022-10-17T07:18:32.778Z,7.35
2022-10-17T07:21:38.301Z,6.70
2022-10-17T07:24:42.727Z,6.00
2022-10-17T07:27:49.683Z,5.90
2022-10-17T07:30:55.373Z,5.37
2022-10-17T07:34:00.513Z,6.25
2022-10-17T07:37:04.365Z,6.03
2022-10-17T07:40:09.897Z,5.85
2022-10-17T07:43:13.042Z,5.97
2022-10-17T07:46:15.676Z,5.90
2022-10-17T07:49:20.008Z,5.55
2022-10-17T07:52:23.372Z,6.00
2022-10-17T07:55:26.298Z,5.55
2022-10-17T07:58:29.650Z,5.80
2022-10-17T08:01:32.536Z,4.18
2022-10-17T08:04:36.641Z,3.62
2022-10-17T08:07:40.527Z,5.37
2022-10-17T08:10:43.397Z,4.85
2022-10-17T08:13:46.028Z,4.73
2022-10-17T08:16:48.934Z,5.85
2022-10-17T08:19:51.689Z,5.57
2022-10-17T08:22:55.554Z,4.85
2022-10-17T08:26:03.565Z,5.32
2022-10-17T08:29:06.547Z,4.67
2022-10-17T08:32:10.340Z,4.70
2022-10-17T08:35:15.189Z,4.40
2022-10-17T08:38:20.921Z,5.43
2022-10-17T08:41:50.651Z,5.15
2022-10-17T08:44:55.919Z,4.50
2022-10-17T08:48:02.330Z,4.35
2022-10-17T08:51:16.478Z,4.65
2022-10-17T08:54:26.571Z,4.72
2022-10-17T08:57:29.692Z,4.12
2022-10-17T09:00:33.953Z,4.50
2022-10-17T09:04:09.827Z,4.12
2022-10-17T09:07:28.340Z,4.47
2022-10-17T09:10:36.909Z,4.07
2022-10-17T09:13:55.258Z,6.12
2022-10-17T09:17:07.475Z,4.40
2022-10-17T09:20:20.082Z,5.93
2022-10-17T09:23:30.440Z,5.18
2022-10-17T09:26:34.974Z,5.05
2022-10-17T09:29:42.940Z,4.62
2022-10-17T09:32:47.872Z,5.37
2022-10-17T09:35:51.748Z,5.10
2022-10-17T09:39:00.505Z,5.07
2022-10-17T09:42:04.529Z,4.37
2022-10-17T09:45:20.147Z,3.80
2022-10-17T09:48:37.337Z,5.03
2022-10-17T09:51:40.968Z,4.40
2022-10-17T09:55:08.633Z,3.75
2022-10-17T09:58:12.098Z,4.70
2022-10-17T10:01:29.494Z,5.50
2022-10-17T10:04:46.745Z,5.17
2022-10-17T10:08:13.632Z,5.40
2022-10-17T10:11:17.947Z,4.10
2022-10-17T10:14:39.868Z,5.18
2022-10-17T10:17:43.574Z,4.95
2022-10-17T10:20:47.072Z,4.93
2022-10-17T10:24:08.738Z,4.25
2022-10-17T10:27:17.043Z,4.60
2022-10-17T10:30:25.754Z,4.18
2022-10-17T10:33:30.702Z,4.03
2022-10-17T10:36:50.250Z,3.90
2022-10-17T10:39:57.318Z,4.20
2022-10-17T10:43:05.099Z,4.07
2022-10-17T10:46:18.519Z,4.00
2022-10-17T10:49:32.469Z,4.25
2022-10-17T10:52:44.484Z,4.97
2022-10-17T10:55:52.845Z,4.80
2022-10-17T10:59:26.726Z,5.00
2022-10-17T11:02:43.149Z,5.50
2022-10-17T11:06:01.347Z,4.97
2022-10-17T11:09:34.180Z,3.97
2022-10-17T11:15:54.035Z,4.95
2022-10-17T11:19:12.397Z,4.60
2022-10-17T11:22:31.386Z,4.45
2022-10-17T11:25:37.385Z,4.90
2022-10-17T11:28:40.374Z,5.05
2022-10-17T11:31:49.659Z,3.33
2022-10-17T11:34:59.609Z,5.22
2022-10-17T11:38:22.511Z,4.68
2022-10-17T11:41:46.592Z,3.77
2022-10-17T11:44:52.354Z,4.32
2022-10-17T11:48:08.080Z,3.75
2022-10-17T11:54:54.785Z,4.68
2022-10-17T11:58:48.550Z,3.70
2022-10-17T12:02:02.057Z,4.22
2022-10-17T12:05:20.532Z,4.12
2022-10-17T12:08:47.484Z,4.00
2022-10-17T12:11:59.986Z,4.80
2022-10-17T12:15:20.856Z,3.80
2022-10-17T12:18:27.577Z,4.53
2022-10-17T12:21:55.208Z,4.15
2022-10-17T12:25:02.870Z,4.87
2022-10-17T12:28:30.917Z,4.43
2022-10-17T12:31:34.382Z,4.27
2022-10-17T12:34:38.306Z,4.03
2022-10-17T12:38:02.347Z,4.80
2022-10-17T12:41:06.115Z,4.45
2022-10-17T12:44:15.141Z,4.68
2022-10-17T12:47:36.797Z,5.13
2022-10-17T12:51:34.220Z,5.53
2022-10-17T12:54:47.246Z,5.00
2022-10-17T12:58:11.101Z,4.32
2022-10-17T13:01:26.015Z,5.30
2022-10-17T13:04:31.167Z,4.47
2022-10-17T13:07:36.643Z,4.78
2022-10-17T13:10:43.090Z,4.57
2022-10-17T13:13:52.043Z,4.60
2022-10-17T13:16:56.504Z,4.55
2022-10-17T13:19:59.173Z,4.30
2022-10-17T13:23:03.305Z,4.47
2022-10-17T13:26:22.566Z,5.32
2022-10-17T13:29:26.353Z,4.65
2022-10-17T13:32:37.651Z,4.25
2022-10-17T13:36:00.378Z,4.77
2022-10-17T13:39:14.957Z,4.47
2022-10-17T13:42:40.820Z,5.18
2022-10-17T13:45:49.604Z,4.90
2022-10-17T13:48:57.555Z,4.00
2022-10-17T13:52:02.869Z,4.93
2022-10-17T13:55:17.828Z,4.95
2022-10-17T13:58:21.427Z,5.25
2022-10-17T14:01:26.924Z,5.20
2022-10-17T14:04:40.023Z,5.18
2022-10-17T14:08:11.980Z,4.67
2022-10-17T14:11:23.634Z,5.03
2022-10-17T14:14:27.245Z,4.37
2022-10-17T14:17:31.410Z,4.18
2022-10-17T14:24:21.352Z,3.77
2022-10-17T14:28:03.666Z,4.68
2022-10-17T14:31:30.143Z,4.65
2022-10-17T14:34:36.215Z,4.22
2022-10-17T14:37:45.807Z,7.68
2022-10-17T14:44:52.144Z,4.35
2022-10-17T14:48:01.195Z,4.50
2022-10-17T14:51:15.554Z,3.72
2022-10-17T14:54:27.475Z,4.50
2022-10-17T14:57:33.179Z,4.67
2022-10-17T15:00:35.692Z,6.50
2022-10-17T15:03:38.726Z,11.02
2022-10-17T15:06:41.969Z,12.15
2022-10-17T15:09:48.796Z,6.65
2022-10-17T15:13:04.512Z,4.50
2022-10-17T15:16:30.614Z,3.70
2022-10-17T15:19:33.710Z,4.57
2022-10-17T15:22:38.159Z,5.37
2022-10-17T15:25:41.033Z,4.80
2022-10-17T15:28:46.459Z,6.50
2022-10-17T15:31:49.119Z,8.38
2022-10-17T15:34:53.596Z,15.23
2022-10-17T15:37:56.257Z,13.90
2022-10-17T15:40:59.283Z,20.67
2022-10-17T15:44:01.886Z,33.73
2022-10-17T15:47:20.061Z,23.02
2022-10-17T15:50:22.958Z,21.92
2022-10-17T15:53:26.070Z,16.92
2022-10-17T15:56:41.486Z,13.23
2022-10-17T15:59:47.089Z,9.57
2022-10-17T16:02:51.546Z,10.15
2022-10-17T16:05:57.268Z,12.15
2022-10-17T16:08:59.929Z,11.07
2022-10-17T16:12:14.336Z,9.95
2022-10-17T16:15:23.004Z,9.33
2022-10-17T16:18:27.275Z,9.05
2022-10-17T16:21:33.281Z,9.30
2022-10-17T16:24:36.124Z,13.75
2022-10-17T16:27:39.361Z,19.70
2022-10-17T16:30:46.464Z,24.10
2022-10-17T16:33:51.666Z,25.98
2022-10-17T16:36:54.734Z,17.35
2022-10-17T16:39:58.265Z,15.48
2022-10-17T16:43:02.588Z,9.90
2022-10-17T16:46:05.427Z,8.57
2022-10-17T16:49:08.353Z,7.20
2022-10-17T16:52:11.551Z,6.40
2022-10-17T16:55:14.791Z,7.07
2022-10-17T16:58:17.543Z,7.57
2022-10-17T17:01:23.752Z,7.00
2022-10-17T17:04:26.899Z,7.70
2022-10-17T17:07:30.845Z,7.75
2022-10-17T17:10:34.763Z,8.23
2022-10-17T17:13:38.343Z,6.22
2022-10-17T17:16:42.189Z,7.33
2022-10-17T17:19:47.073Z,10.32
2022-10-17T17:22:51.000Z,11.40
2022-10-17T17:26:03.133Z,12.02
2022-10-17T17:29:06.018Z,14.43
2022-10-17T17:32:09.483Z,15.47
2022-10-17T17:35:12.607Z,15.60
2022-10-17T17:38:16.085Z,20.60
2022-10-17T17:41:20.912Z,21.30
2022-10-17T17:44:24.184Z,18.17
2022-10-17T17:47:31.459Z,14.70
2022-10-17T17:50:38.527Z,11.82
2022-10-17T17:53:41.493Z,15.68
2022-10-17T17:56:44.501Z,19.87
2022-10-17T17:59:48.700Z,17.87
2022-10-17T18:02:52.171Z,14.13
2022-10-17T18:05:55.441Z,12.45
2022-10-17T18:08:59.440Z,13.60
2022-10-17T18:12:02.859Z,11.63
2022-10-17T18:15:06.952Z,13.70
2022-10-17T18:18:10.969Z,14.07
2022-10-17T18:21:14.993Z,14.52
2022-10-17T18:24:23.603Z,13.70
2022-10-17T18:27:26.831Z,14.25
2022-10-17T18:30:33.720Z,12.00
2022-10-17T18:33:38.310Z,6.53
2022-10-17T18:36:41.632Z,10.07
2022-10-17T18:39:45.488Z,7.10
2022-10-17T18:42:48.833Z,8.25
2022-10-17T18:45:56.714Z,5.30
2022-10-17T18:49:00.151Z,8.60
2022-10-17T18:52:04.445Z,8.13
2022-10-17T18:55:08.295Z,6.80
2022-10-17T18:58:11.278Z,7.22
2022-10-17T19:01:18.041Z,6.55
2022-10-17T19:04:22.355Z,6.70
2022-10-17T19:07:25.467Z,6.10
2022-10-17T19:10:28.104Z,5.45
2022-10-17T19:13:32.194Z,6.15
2022-10-17T19:16:41.591Z,7.30
2022-10-17T19:19:46.471Z,6.83
2022-10-17T19:26:05.999Z,5.97
2022-10-17T19:29:12.679Z,5.65
2022-10-17T19:32:20.621Z,5.32
2022-10-17T19:35:28.691Z,4.40
2022-10-17T19:38:32.079Z,5.37
2022-10-17T19:41:36.536Z,5.07
2022-10-17T19:44:40.238Z,5.62
2022-10-17T19:47:42.892Z,4.55
2022-10-17T19:50:46.210Z,5.20
2022-10-17T19:53:48.920Z,5.25
2022-10-17T19:56:53.391Z,4.62
2022-10-17T19:59:56.651Z,5.03
2022-10-17T20:03:03.298Z,4.78
2022-10-17T20:06:07.116Z,4.60
2022-10-17T20:09:15.702Z,5.00
2022-10-17T20:12:21.791Z,5.32
2022-10-17T20:15:24.501Z,4.50
2022-10-17T20:18:27.808Z,4.57
2022-10-17T20:21:35.399Z,4.93
2022-10-17T20:24:38.310Z,4.55
2022-10-17T20:27:40.917Z,4.68
2022-10-17T20:30:47.979Z,4.60
2022-10-17T20:34:00.311Z,6.10
2022-10-17T20:37:03.332Z,5.10
2022-10-17T20:40:33.701Z,4.50
2022-10-17T20:43:30.822Z,5.53
2022-10-17T20:46:38.318Z,5.28
2022-10-17T20:49:44.933Z,5.18
2022-10-17T20:52:47.645Z,5.33
2022-10-17T20:56:01.940Z,5.30
2022-10-17T20:59:08.374Z,5.53
2022-10-17T21:02:12.701Z,4.78
2022-10-17T21:05:17.865Z,5.93
2022-10-17T21:08:21.213Z,5.70
2022-10-17T21:11:26.227Z,5.70
2022-10-17T21:14:29.208Z,5.20
2022-10-17T21:17:31.968Z,5.12
2022-10-17T21:20:35.783Z,5.65
2022-10-17T21:23:40.855Z,5.23
2022-10-17T21:26:45.834Z,5.75
2022-10-17T21:29:48.611Z,5.75
2022-10-17T21:32:55.169Z,5.18
2022-10-17T21:35:58.084Z,6.20
2022-10-17T21:39:01.241Z,4.77
2022-10-17T21:42:04.138Z,5.62
2022-10-17T21:45:15.322Z,5.43
2022-10-17T21:48:22.752Z,5.70
2022-10-17T21:51:26.905Z,5.25
2022-10-17T21:54:29.502Z,4.90
2022-10-17T21:57:32.397Z,4.90
2022-10-17T22:00:36.154Z,5.15
2022-10-17T22:03:44.096Z,5.12
2022-10-17T22:06:53.491Z,5.00
2022-10-17T22:09:56.376Z,4.90
2022-10-17T22:12:58.973Z,5.15
2022-10-17T22:16:10.214Z,5.57
2022-10-17T22:19:14.971Z,5.05
2022-10-17T22:22:17.934Z,5.80
2022-10-17T22:25:20.596Z,5.63
2022-10-17T22:28:24.621Z,4.68
2022-10-17T22:31:27.690Z,5.40
2022-10-17T22:34:30.747Z,5.30
2022-10-17T22:37:33.596Z,5.00
2022-10-17T22:40:36.653Z,5.43
2022-10-17T22:43:39.307Z,5.10
2022-10-17T22:46:42.231Z,5.78
2022-10-17T22:49:46.054Z,5.32
2022-10-17T22:52:51.280Z,4.93
2022-10-17T22:55:59.018Z,5.00
2022-10-17T22:59:01.955Z,4.90
2022-10-17T23:02:04.619Z,4.95
2022-10-17T23:05:08.054Z,4.87
2022-10-17T23:08:12.281Z,5.00
2022-10-17T23:11:15.582Z,4.87
2022-10-17T23:14:18.263Z,5.50
2022-10-17T23:17:23.426Z,4.97
2022-10-17T23:20:26.251Z,6.10
2022-10-17T23:23:29.236Z,5.20
2022-10-17T23:26:31.826Z,6.93
2022-10-17T23:29:34.929Z,7.43
2022-10-17T23:32:38.649Z,7.32
2022-10-17T23:35:44.831Z,6.43
2022-10-17T23:38:49.018Z,7.70
2022-10-17T23:41:52.299Z,7.20
2022-10-17T23:44:55.062Z,6.72
2022-10-17T23:47:57.922Z,6.75
2022-10-17T23:51:00.885Z,6.37
2022-10-17T23:54:04.890Z,7.40
2022-10-17T23:57:07.517Z,7.53
